createdAt,value
2023-04-23T00:01:19.140Z,77.88
2023-04-23T00:03:49.478Z,77.46
2023-04-23T00:06:18.859Z,74.95
2023-04-23T00:08:47.212Z,75.79
2023-04-23T00:11:14.087Z,75.65
2023-04-23T00:13:40.886Z,75.96
2023-04-23T00:16:08.089Z,75.84
2023-04-23T00:18:34.796Z,75.55
2023-04-23T00:21:01.767Z,78.03
2023-04-23T00:23:29.165Z,76.50
2023-04-23T00:25:55.846Z,77.83
2023-04-23T00:28:24.699Z,78.05
2023-04-23T00:30:51.357Z,75.91
2023-04-23T00:33:20.620Z,75.75
2023-04-23T00:35:47.267Z,72.97
2023-04-23T00:38:14.087Z,73.19
2023-04-23T00:40:41.256Z,74.27
2023-04-23T00:43:08.046Z,72.95
2023-04-23T00:45:34.784Z,73.36
2023-04-23T00:48:02.510Z,74.93
2023-04-23T00:50:29.441Z,74.98
2023-04-23T00:52:56.048Z,74.83
2023-04-23T00:55:22.722Z,73.02
2023-04-23T00:57:50.589Z,74.63
2023-04-23T01:00:17.425Z,72.88
2023-04-23T01:02:45.556Z,74.78
2023-04-23T01:05:17.504Z,77.26
2023-04-23T01:07:45.103Z,76.30
2023-04-23T01:10:12.361Z,76.29
2023-04-23T01:12:39.387Z,75.77
2023-04-23T01:15:06.854Z,75.79
2023-04-23T01:17:33.673Z,76.81
2023-04-23T01:20:00.511Z,76.60
2023-04-23T01:22:27.353Z,77.23
2023-04-23T01:24:54.792Z,77.88
2023-04-23T01:27:21.701Z,77.43
2023-04-23T01:29:49.169Z,78.69
2023-04-23T01:32:17.430Z,77.39
2023-04-23T01:34:46.184Z,76.20
2023-04-23T01:37:15.154Z,76.01
2023-04-23T01:39:41.884Z,76.04
2023-04-23T01:42:08.591Z,75.95
2023-04-23T01:44:35.446Z,78.70
2023-04-23T01:47:06.999Z,79.11
2023-04-23T01:49:34.241Z,77.08
2023-04-23T01:52:00.965Z,78.19
2023-04-23T01:54:27.944Z,78.99
2023-04-23T01:56:54.870Z,80.52
2023-04-23T01:59:22.454Z,82.09
2023-04-23T02:01:50.324Z,82.60
2023-04-23T02:04:17.866Z,82.25
2023-04-23T02:06:47.854Z,81.66
2023-04-23T02:09:14.926Z,81.82
2023-04-23T02:11:41.582Z,81.71
2023-04-23T02:14:10.364Z,82.05
2023-04-23T02:16:37.006Z,82.44
2023-04-23T02:19:04.016Z,82.50
2023-04-23T02:21:31.149Z,81.94
2023-04-23T02:23:58.069Z,82.60
2023-04-23T02:26:24.779Z,82.33
2023-04-23T02:28:51.421Z,83.03
2023-04-23T02:31:20.357Z,82.31
2023-04-23T02:33:47.048Z,83.00
2023-04-23T02:36:15.933Z,83.14
2023-04-23T02:38:42.924Z,83.19
2023-04-23T02:41:09.664Z,82.82
2023-04-23T02:43:36.419Z,81.60
2023-04-23T02:46:03.366Z,80.18
2023-04-23T02:48:30.044Z,80.39
2023-04-23T02:50:56.748Z,80.28
2023-04-23T02:53:23.481Z,81.39
2023-04-23T02:55:50.165Z,80.82
2023-04-23T02:58:17.108Z,81.23
2023-04-23T03:00:43.750Z,80.52
2023-04-23T03:03:12.498Z,79.32
2023-04-23T03:05:39.537Z,78.98
2023-04-23T03:08:06.236Z,79.55
2023-04-23T03:10:32.919Z,80.33
2023-04-23T03:12:59.558Z,78.52
2023-04-23T03:15:26.271Z,79.90
2023-04-23T03:17:53.476Z,79.36
2023-04-23T03:20:20.168Z,79.99
2023-04-23T03:22:46.909Z,77.74
2023-04-23T03:25:13.527Z,77.37
2023-04-23T03:27:40.491Z,76.91
2023-04-23T03:30:09.257Z,76.47
2023-04-23T03:32:36.871Z,77.60
2023-04-23T03:35:03.863Z,77.26
2023-04-23T03:37:30.504Z,77.63
2023-04-23T03:39:57.122Z,77.81
2023-04-23T03:42:23.713Z,78.25
2023-04-23T03:44:50.331Z,74.52
2023-04-23T03:47:16.924Z,73.67
2023-04-23T03:49:44.324Z,75.40
2023-04-23T03:52:10.989Z,74.36
2023-04-23T03:54:37.604Z,72.90
2023-04-23T03:57:04.227Z,74.14
2023-04-23T03:59:30.901Z,73.44
2023-04-23T04:01:57.530Z,74.74
2023-04-23T04:04:24.259Z,75.42
2023-04-23T04:06:51.082Z,73.08
2023-04-23T04:09:17.750Z,74.67
2023-04-23T04:11:44.415Z,74.92
2023-04-23T04:14:11.028Z,74.47
2023-04-23T04:16:37.677Z,75.88
2023-04-23T04:19:04.492Z,74.63
2023-04-23T04:21:31.364Z,72.48
2023-04-23T04:23:58.005Z,73.38
2023-04-23T04:26:24.625Z,73.21
2023-04-23T04:28:51.246Z,72.10
2023-04-23T04:31:17.860Z,71.51
2023-04-23T04:33:44.473Z,73.17
2023-04-23T04:36:11.076Z,73.02
2023-04-23T04:38:37.689Z,72.98
2023-04-23T04:41:04.610Z,72.45
2023-04-23T04:43:31.358Z,72.82
2023-04-23T04:45:58.385Z,76.21
2023-04-23T04:48:25.259Z,76.28
2023-04-23T04:50:51.893Z,78.30
2023-04-23T04:53:18.556Z,74.72
2023-04-23T04:55:45.651Z,78.38
2023-04-23T04:58:12.287Z,75.18
2023-04-23T05:00:38.979Z,73.99
2023-04-23T05:03:05.952Z,73.30
2023-04-23T05:05:33.323Z,72.26
2023-04-23T05:08:00.676Z,71.00
2023-04-23T05:10:27.472Z,70.23
2023-04-23T05:12:54.157Z,71.95
2023-04-23T05:15:20.901Z,72.20
2023-04-23T05:17:47.632Z,70.98
2023-04-23T05:20:14.290Z,69.99
2023-04-23T05:22:42.858Z,69.84
2023-04-23T05:25:11.137Z,69.42
2023-04-23T05:27:38.142Z,68.07
2023-04-23T05:30:08.235Z,67.65
2023-04-23T05:32:35.845Z,68.27
2023-04-23T05:35:03.347Z,68.70
2023-04-23T05:37:30.427Z,67.31
2023-04-23T05:39:59.018Z,69.08
2023-04-23T05:42:25.645Z,68.19
2023-04-23T05:44:52.271Z,68.10
2023-04-23T05:47:18.935Z,66.77
2023-04-23T05:49:45.562Z,65.70
2023-04-23T05:52:19.101Z,65.78
2023-04-23T05:54:45.740Z,66.11
2023-04-23T05:57:13.451Z,65.87
2023-04-23T05:59:40.061Z,66.02
2023-04-23T06:02:09.327Z,69.03
2023-04-23T06:04:36.922Z,67.07
2023-04-23T06:07:03.936Z,66.29
2023-04-23T06:09:30.708Z,65.51
2023-04-23T06:11:57.769Z,66.72
2023-04-23T06:14:24.434Z,67.04
2023-04-23T06:16:51.045Z,66.27
2023-04-23T06:19:20.767Z,66.23
2023-04-23T06:21:47.493Z,64.95
2023-04-23T06:24:14.499Z,63.83
2023-04-23T06:26:43.426Z,62.54
2023-04-23T06:29:10.127Z,63.18
2023-04-23T06:31:39.098Z,62.95
2023-04-23T06:34:05.731Z,63.11
2023-04-23T06:36:32.377Z,63.70
2023-04-23T06:38:59.209Z,63.31
2023-04-23T06:41:26.092Z,64.72
2023-04-23T06:43:52.703Z,65.69
2023-04-23T06:46:19.592Z,66.13
2023-04-23T06:48:46.274Z,65.07
2023-04-23T06:51:13.311Z,64.80
2023-04-23T06:53:42.847Z,64.88
2023-04-23T06:56:09.528Z,63.95
2023-04-23T06:58:36.458Z,62.43
2023-04-23T07:01:03.205Z,61.82
2023-04-23T07:03:30.780Z,60.43
2023-04-23T07:05:57.988Z,59.39
2023-04-23T07:08:24.689Z,59.37
2023-04-23T07:10:51.672Z,59.89
2023-04-23T07:13:18.351Z,61.99
2023-04-23T07:15:45.048Z,63.39
2023-04-23T07:18:11.774Z,64.27
2023-04-23T07:20:40.866Z,63.79
2023-04-23T07:23:07.613Z,62.50
2023-04-23T07:25:34.316Z,61.35
2023-04-23T07:28:00.991Z,61.13
2023-04-23T07:30:28.141Z,63.24
2023-04-23T07:32:56.670Z,62.32
2023-04-23T07:35:23.821Z,61.31
2023-04-23T07:37:50.428Z,61.37
2023-04-23T07:40:17.419Z,58.74
2023-04-23T07:42:44.422Z,56.12
2023-04-23T07:45:11.348Z,54.12
2023-04-23T07:47:38.033Z,52.90
2023-04-23T07:50:05.059Z,52.63
2023-04-23T07:52:31.714Z,54.17
2023-04-23T07:55:01.859Z,52.15
2023-04-23T07:57:28.896Z,50.38
2023-04-23T07:59:55.632Z,48.55
2023-04-23T08:02:22.384Z,48.12
2023-04-23T08:04:49.635Z,48.58
2023-04-23T08:07:16.529Z,47.55
2023-04-23T08:09:43.529Z,48.06
2023-04-23T08:12:11.459Z,48.12
2023-04-23T08:14:38.093Z,46.55
2023-04-23T08:17:04.747Z,43.89
2023-04-23T08:19:31.354Z,47.45
2023-04-23T08:21:58.008Z,48.45
2023-04-23T08:24:24.621Z,48.93
2023-04-23T08:26:51.291Z,48.09
2023-04-23T08:29:18.297Z,47.75
2023-04-23T08:31:50.096Z,46.82
2023-04-23T08:34:17.124Z,46.71
2023-04-23T08:36:43.999Z,45.13
2023-04-23T08:39:10.607Z,45.70
2023-04-23T08:41:41.901Z,44.86
2023-04-23T08:44:38.353Z,46.47
2023-04-23T08:47:05.750Z,46.26
2023-04-23T08:49:34.253Z,46.82
2023-04-23T08:52:23.165Z,46.59
2023-04-23T08:54:53.529Z,46.57
2023-04-23T08:57:20.437Z,47.56
2023-04-23T08:59:50.943Z,47.82
2023-04-23T09:02:18.090Z,48.51
2023-04-23T09:04:50.251Z,51.99
2023-04-23T09:07:18.842Z,50.47
2023-04-23T09:09:45.549Z,48.17
2023-04-23T09:12:12.273Z,51.13
2023-04-23T09:14:39.017Z,49.67
2023-04-23T09:17:05.735Z,51.68
2023-04-23T09:19:32.372Z,51.90
2023-04-23T09:21:59.647Z,54.38
2023-04-23T09:24:26.413Z,53.01
2023-04-23T09:26:53.095Z,54.99
2023-04-23T09:29:22.510Z,55.14
2023-04-23T09:31:51.196Z,57.39
2023-04-23T09:34:19.785Z,55.34
2023-04-23T09:36:48.736Z,57.44
2023-04-23T09:39:18.083Z,56.80
2023-04-23T09:41:45.496Z,54.41
2023-04-23T09:44:18.282Z,56.79
2023-04-23T09:46:45.268Z,56.82
2023-04-23T09:49:13.088Z,57.30
2023-04-23T09:51:43.599Z,55.44
2023-04-23T09:54:18.823Z,57.15
2023-04-23T09:56:54.176Z,56.98
2023-04-23T09:59:39.523Z,58.52
2023-04-23T10:02:12.061Z,60.01
2023-04-23T10:04:39.448Z,60.58
2023-04-23T10:07:17.988Z,59.21
2023-04-23T10:09:47.099Z,58.98
2023-04-23T10:14:46.043Z,58.42
2023-04-23T10:17:13.556Z,59.63
2023-04-23T10:19:44.949Z,59.16
2023-04-23T10:22:20.113Z,58.42
2023-04-23T10:24:52.952Z,55.19
2023-04-23T10:29:54.089Z,55.18
2023-04-23T10:32:21.730Z,55.73
2023-04-23T10:34:48.583Z,52.73
2023-04-23T10:37:16.807Z,52.58
2023-04-23T10:39:47.945Z,52.62
2023-04-23T10:42:16.836Z,55.42
2023-04-23T10:47:16.181Z,54.96
2023-04-23T10:49:44.055Z,54.09
2023-04-23T10:52:20.315Z,53.00
2023-04-23T10:54:56.385Z,51.73
2023-04-23T10:57:23.241Z,51.92
2023-04-23T10:59:54.881Z,51.33
2023-04-23T11:02:24.580Z,50.83
2023-04-23T11:04:56.694Z,49.21
2023-04-23T11:07:31.082Z,49.36
2023-04-23T11:10:14.413Z,49.43
2023-04-23T11:12:41.661Z,51.38
2023-04-23T11:15:15.005Z,49.87
2023-04-23T11:17:44.657Z,49.33
2023-04-23T11:20:14.842Z,49.97
2023-04-23T11:22:47.026Z,49.40
2023-04-23T11:25:25.285Z,51.61
2023-04-23T11:27:53.794Z,50.70
2023-04-23T11:30:23.989Z,48.75
2023-04-23T11:32:53.436Z,49.54
2023-04-23T11:35:22.946Z,48.80
2023-04-23T11:37:49.660Z,49.43
2023-04-23T11:40:20.243Z,49.54
2023-04-23T11:42:52.245Z,47.67
2023-04-23T11:45:18.880Z,47.66
2023-04-23T11:47:46.753Z,47.73
2023-04-23T11:50:22.236Z,48.38
2023-04-23T11:52:49.075Z,48.33
2023-04-23T11:55:15.925Z,44.96
2023-04-23T11:57:44.554Z,45.57
2023-04-23T12:00:17.384Z,45.82
2023-04-23T12:03:01.682Z,47.86
2023-04-23T12:05:34.225Z,45.83
2023-04-23T12:08:17.576Z,45.66
2023-04-23T12:10:55.590Z,44.39
2023-04-23T12:13:25.676Z,44.86
2023-04-23T12:15:55.105Z,43.62
2023-04-23T12:18:28.228Z,45.65
2023-04-23T12:20:55.187Z,44.17
2023-04-23T12:23:28.532Z,45.21
2023-04-23T12:25:56.041Z,44.69
2023-04-23T12:28:28.611Z,46.03
2023-04-23T12:31:00.670Z,44.85
2023-04-23T12:33:31.294Z,44.75
2023-04-23T12:35:58.013Z,44.45
2023-04-23T12:38:29.728Z,44.50
2023-04-23T12:40:59.052Z,43.98
2023-04-23T12:43:26.853Z,45.37
2023-04-23T12:45:54.694Z,44.76
2023-04-23T12:48:21.326Z,44.22
2023-04-23T12:50:48.635Z,43.93
2023-04-23T12:53:15.373Z,44.62
2023-04-23T12:55:41.980Z,45.16
2023-04-23T12:58:08.929Z,45.47
2023-04-23T13:00:35.602Z,47.66
2023-04-23T13:03:02.660Z,46.30
2023-04-23T13:05:29.328Z,45.70
2023-04-23T13:07:55.953Z,46.97
2023-04-23T13:10:22.615Z,46.60
2023-04-23T13:12:49.263Z,47.76
2023-04-23T13:15:15.863Z,47.78
2023-04-23T13:17:42.580Z,44.94
2023-04-23T13:20:09.478Z,45.79
2023-04-23T13:22:36.102Z,44.85
2023-04-23T13:25:02.752Z,44.41
2023-04-23T13:27:30.065Z,45.98
2023-04-23T13:29:56.888Z,45.67
2023-04-23T13:32:23.642Z,44.65
2023-04-23T13:34:50.479Z,44.69
2023-04-23T13:37:17.246Z,44.37
2023-04-23T13:39:44.418Z,43.83
2023-04-23T13:42:11.483Z,43.88
2023-04-23T13:44:45.456Z,44.20
2023-04-23T13:47:12.127Z,44.70
2023-04-23T13:49:38.777Z,44.88
2023-04-23T13:52:05.424Z,44.21
2023-04-23T13:54:32.658Z,44.82
2023-04-23T13:56:59.329Z,44.37
2023-04-23T13:59:25.990Z,43.85
2023-04-23T14:01:52.663Z,44.26
2023-04-23T14:04:21.459Z,43.66
2023-04-23T14:06:48.127Z,42.99
2023-04-23T14:09:14.767Z,42.97
2023-04-23T14:11:41.744Z,44.09
2023-04-23T14:14:08.584Z,43.89
2023-04-23T14:16:35.478Z,43.72
2023-04-23T14:19:02.361Z,44.49
2023-04-23T14:21:29.468Z,43.21
2023-04-23T14:24:02.238Z,43.06
2023-04-23T14:26:47.125Z,42.37
2023-04-23T14:29:40.474Z,41.99
2023-04-23T14:32:08.993Z,42.47
2023-04-23T14:34:38.000Z,41.96
2023-04-23T14:37:05.317Z,41.43
2023-04-23T14:39:33.865Z,40.83
2023-04-23T14:42:00.517Z,41.80
2023-04-23T14:44:27.257Z,41.28
2023-04-23T14:46:54.268Z,40.56
2023-04-23T14:49:21.374Z,40.65
2023-04-23T14:51:53.101Z,40.48
2023-04-23T14:54:20.721Z,39.28
2023-04-23T14:56:49.074Z,41.51
2023-04-23T14:59:16.111Z,41.04
2023-04-23T15:01:43.252Z,41.73
2023-04-23T15:04:11.505Z,41.63
2023-04-23T15:06:38.687Z,40.41
2023-04-23T15:09:05.414Z,41.21
2023-04-23T15:11:32.505Z,40.69
2023-04-23T15:14:06.536Z,41.11
2023-04-23T15:16:48.198Z,40.81
2023-04-23T15:19:16.542Z,40.93
2023-04-23T15:21:43.382Z,41.19
2023-04-23T15:24:10.417Z,40.86
2023-04-23T15:26:37.733Z,41.63
2023-04-23T15:29:05.231Z,41.53
2023-04-23T15:31:31.834Z,42.07
2023-04-23T15:34:00.309Z,42.14
2023-04-23T15:36:27.040Z,42.51
2023-04-23T15:38:53.720Z,44.77
2023-04-23T15:41:22.471Z,48.28
2023-04-23T15:43:49.214Z,52.00
2023-04-23T15:46:15.829Z,54.77
2023-04-23T15:48:42.453Z,56.90
2023-04-23T15:51:09.126Z,57.67
2023-04-23T15:53:36.952Z,58.93
2023-04-23T15:56:03.700Z,61.62
2023-04-23T15:58:30.443Z,63.34
2023-04-23T16:00:57.293Z,63.87
2023-04-23T16:03:24.111Z,64.26
2023-04-23T16:05:52.303Z,64.27
2023-04-23T16:08:19.003Z,64.41
2023-04-23T16:10:45.714Z,66.38
2023-04-23T16:13:12.444Z,67.10
2023-04-23T16:15:39.114Z,69.86
2023-04-23T16:18:06.003Z,72.23
2023-04-23T16:20:32.817Z,73.56
2023-04-23T16:22:59.457Z,76.74
2023-04-23T16:25:26.079Z,77.75
2023-04-23T16:27:52.755Z,78.02
2023-04-23T16:30:19.348Z,78.23
2023-04-23T16:32:46.037Z,77.02
2023-04-23T16:35:12.733Z,77.21
2023-04-23T16:37:39.402Z,78.48
2023-04-23T16:40:06.840Z,78.35
2023-04-23T16:42:33.508Z,76.46
2023-04-23T16:45:00.110Z,78.25
2023-04-23T16:47:26.983Z,77.77
2023-04-23T16:49:53.748Z,78.04
2023-04-23T16:52:20.482Z,76.02
2023-04-23T16:54:47.104Z,74.78
2023-04-23T16:57:13.959Z,72.82
2023-04-23T16:59:40.755Z,71.39
2023-04-23T17:02:07.560Z,73.62
2023-04-23T17:04:34.393Z,74.12
2023-04-23T17:07:01.532Z,73.63
2023-04-23T17:09:28.810Z,69.82
2023-04-23T17:11:55.411Z,69.26
2023-04-23T17:14:23.764Z,71.76
2023-04-23T17:16:50.399Z,71.27
2023-04-23T17:19:16.995Z,70.30
2023-04-23T17:21:44.220Z,70.92
2023-04-23T17:24:11.971Z,70.53
2023-04-23T17:26:38.589Z,68.71
2023-04-23T17:29:05.804Z,68.39
2023-04-23T17:31:32.543Z,66.21
2023-04-23T17:33:59.349Z,65.99
2023-04-23T17:36:26.102Z,66.68
2023-04-23T17:38:52.757Z,66.98
2023-04-23T17:41:19.501Z,67.72
2023-04-23T17:43:47.057Z,68.60
2023-04-23T17:46:13.692Z,69.74
2023-04-23T17:48:40.404Z,69.97
2023-04-23T17:51:07.219Z,69.87
2023-04-23T17:53:34.142Z,70.69
2023-04-23T17:56:00.866Z,70.22
2023-04-23T17:58:27.610Z,67.53
2023-04-23T18:00:54.304Z,69.22
2023-04-23T18:03:21.253Z,69.83
2023-04-23T18:05:48.136Z,67.07
2023-04-23T18:08:14.759Z,70.34
2023-04-23T18:10:41.391Z,69.51
2023-04-23T18:13:08.235Z,70.66
2023-04-23T18:15:34.913Z,70.99
2023-04-23T18:18:01.611Z,71.57
2023-04-23T18:20:28.336Z,72.23
2023-04-23T18:22:55.067Z,68.91
2023-04-23T18:25:22.120Z,69.89
2023-04-23T18:27:48.794Z,72.20
2023-04-23T18:30:15.621Z,70.05
2023-04-23T18:32:48.528Z,71.73
2023-04-23T18:35:15.459Z,72.57
2023-04-23T18:38:00.240Z,71.14
2023-04-23T18:40:27.174Z,69.31
2023-04-23T18:42:54.015Z,70.35
2023-04-23T18:45:20.654Z,70.84
2023-04-23T18:47:56.384Z,69.13
2023-04-23T18:50:37.355Z,68.38
2023-04-23T18:53:04.651Z,68.89
2023-04-23T18:55:31.373Z,68.07
2023-04-23T18:57:58.001Z,68.28
2023-04-23T19:00:24.953Z,67.78
2023-04-23T19:02:51.698Z,68.76
2023-04-23T19:05:18.588Z,69.27
2023-04-23T19:07:45.263Z,70.81
2023-04-23T19:10:12.397Z,71.12
2023-04-23T19:12:39.024Z,68.68
2023-04-23T19:15:06.032Z,69.01
2023-04-23T19:17:32.695Z,68.41
2023-04-23T19:19:59.596Z,66.57
2023-04-23T19:22:26.197Z,69.04
2023-04-23T19:24:52.874Z,69.63
2023-04-23T19:27:19.527Z,70.06
2023-04-23T19:29:46.201Z,70.25
2023-04-23T19:32:12.819Z,69.17
2023-04-23T19:34:39.406Z,70.74
2023-04-23T19:37:06.030Z,69.64
2023-04-23T19:39:32.641Z,69.05
2023-04-23T19:41:59.373Z,68.65
2023-04-23T19:44:25.997Z,70.45
2023-04-23T19:46:52.737Z,71.25
2023-04-23T19:49:19.389Z,71.18
2023-04-23T19:51:46.877Z,70.64
2023-04-23T19:54:13.495Z,69.81
2023-04-23T19:56:40.123Z,69.31
2023-04-23T19:59:06.708Z,70.98
2023-04-23T20:01:33.394Z,70.73
2023-04-23T20:04:00.186Z,71.01
2023-04-23T20:06:26.931Z,70.34
2023-04-23T20:08:53.522Z,69.94
2023-04-23T20:11:20.137Z,71.04
2023-04-23T20:13:46.767Z,71.52
2023-04-23T20:16:14.380Z,70.64
2023-04-23T20:18:40.980Z,71.05
2023-04-23T20:21:07.604Z,71.58
2023-04-23T20:23:34.245Z,71.94
2023-04-23T20:26:00.916Z,71.54
2023-04-23T20:28:27.980Z,72.83
2023-04-23T20:30:54.603Z,72.59
2023-04-23T20:33:21.218Z,71.90
2023-04-23T20:35:48.109Z,71.47
2023-04-23T20:38:17.048Z,72.72
2023-04-23T20:40:43.729Z,72.59
2023-04-23T20:43:10.426Z,71.79
2023-04-23T20:45:37.100Z,70.92
2023-04-23T20:48:06.646Z,71.22
2023-04-23T20:50:33.355Z,71.42
2023-04-23T20:53:00.195Z,70.42
2023-04-23T20:55:26.883Z,70.73
2023-04-23T20:57:53.534Z,70.52
2023-04-23T21:00:20.295Z,71.32
2023-04-23T21:02:47.112Z,70.68
2023-04-23T21:05:14.168Z,70.57
2023-04-23T21:07:40.841Z,70.46
2023-04-23T21:10:07.819Z,70.75
2023-04-23T21:12:35.461Z,69.45
2023-04-23T21:15:02.065Z,70.74
2023-04-23T21:17:28.783Z,70.02
2023-04-23T21:19:55.423Z,70.71
2023-04-23T21:22:22.051Z,70.13
2023-04-23T21:24:48.693Z,69.08
2023-04-23T21:27:16.766Z,67.91
2023-04-23T21:29:45.566Z,68.86
2023-04-23T21:32:12.305Z,68.52
2023-04-23T21:34:38.954Z,68.46
2023-04-23T21:37:05.745Z,69.67
2023-04-23T21:39:32.956Z,69.08
2023-04-23T21:41:59.895Z,70.01
2023-04-23T21:44:26.541Z,70.33
2023-04-23T21:46:53.156Z,70.25
2023-04-23T21:49:19.956Z,74.62
2023-04-23T21:51:46.573Z,74.46
2023-04-23T21:54:13.201Z,73.03
2023-04-23T21:56:40.014Z,74.90
2023-04-23T21:59:06.684Z,74.44
2023-04-23T22:01:38.800Z,74.78
2023-04-23T22:04:06.672Z,75.63
2023-04-23T22:06:33.461Z,74.90
2023-04-23T22:09:03.029Z,77.75
2023-04-23T22:11:30.409Z,77.73
2023-04-23T22:13:57.220Z,77.14
2023-04-23T22:16:28.610Z,76.72
2023-04-23T22:18:58.818Z,77.38
2023-04-23T22:21:25.548Z,79.67
2023-04-23T22:23:52.248Z,78.85
2023-04-23T22:26:19.097Z,79.16
2023-04-23T22:28:45.715Z,80.79
2023-04-23T22:31:12.463Z,79.84
2023-04-23T22:33:39.157Z,80.32
2023-04-23T22:36:05.994Z,79.17
2023-04-23T22:38:32.754Z,79.78
2023-04-23T22:40:59.440Z,78.87
2023-04-23T22:43:26.135Z,78.12
2023-04-23T22:45:52.880Z,79.87
2023-04-23T22:48:19.569Z,79.32
2023-04-23T22:50:46.313Z,78.35
2023-04-23T22:53:12.909Z,79.61
2023-04-23T22:55:40.579Z,82.94
2023-04-23T22:58:07.189Z,85.64
2023-04-23T23:00:33.829Z,86.34
2023-04-23T23:03:00.554Z,87.87
2023-04-23T23:05:27.244Z,87.87
2023-04-23T23:07:53.880Z,88.56
2023-04-23T23:10:22.719Z,88.01
2023-04-23T23:12:49.696Z,87.46
2023-04-23T23:15:16.322Z,86.53
2023-04-23T23:17:42.970Z,87.06
2023-04-23T23:20:10.225Z,85.04
2023-04-23T23:22:36.881Z,82.45
2023-04-23T23:25:04.391Z,86.15
2023-04-23T23:27:31.020Z,83.66
2023-04-23T23:29:57.731Z,83.16
2023-04-23T23:32:24.461Z,82.58
2023-04-23T23:34:51.060Z,81.97
2023-04-23T23:37:17.685Z,78.86
2023-04-23T23:39:44.540Z,79.92
2023-04-23T23:42:11.318Z,79.56
2023-04-23T23:44:37.980Z,80.28
2023-04-23T23:47:04.827Z,80.73
2023-04-23T23:49:31.467Z,82.22
2023-04-23T23:51:58.220Z,82.38
2023-04-23T23:54:24.847Z,81.36
2023-04-23T23:56:51.487Z,82.11
2023-04-23T23:59:18.146Z,81.28
